Time;durP1;ratioP1;P1;durP2;ratioP2;P2;SDS_P1;SDS_P2;PMS_P1;PMS_P2;Temp;Humidity;BMP_temperature;BMP_pressure;BME280_temperature;BME280_humidity;BME280_pressure;Samples;Min_cycle;Max_cycle;Signal;HPM_P1;HPM_P2
2024/04/19 00:00:22;;;;;;;0.97;0.97;;;7.80;99.90;;;;;;5425305;26;20229;-85
2024/04/19 00:02:49;;;;;;;0.88;0.80;;;7.80;99.90;;;;;;5425130;26;20225;-85
2024/04/19 00:05:18;;;;;;;0.50;0.40;;;7.70;99.90;;;;;;5425021;26;20221;-85
2024/04/19 00:07:44;;;;;;;0.50;0.40;;;7.60;99.90;;;;;;5424541;26;20223;-85
2024/04/19 00:10:15;;;;;;;0.50;0.40;;;7.50;99.90;;;;;;5425546;26;20256;-85
2024/04/19 00:12:40;;;;;;;0.50;0.40;;;7.40;99.90;;;;;;5425063;26;20306;-85
2024/04/19 00:15:09;;;;;;;0.50;0.40;;;7.30;99.90;;;;;;5425408;26;20209;-85
2024/04/19 00:17:36;;;;;;;0.60;0.60;;;7.20;99.90;;;;;;5424610;26;20240;-85
2024/04/19 00:20:04;;;;;;;0.50;0.47;;;7.10;99.90;;;;;;5424642;26;20255;-85
2024/04/19 00:22:30;;;;;;;0.60;0.52;;;7.00;99.90;;;;;;5424860;26;20224;-85
2024/04/19 00:24:58;;;;;;;0.50;0.50;;;6.90;99.90;;;;;;5424717;26;20216;-85
2024/04/19 00:27:27;;;;;;;0.50;0.50;;;6.90;99.90;;;;;;5425966;26;20606;-85
2024/04/19 00:29:55;;;;;;;1.40;0.80;;;6.90;99.90;;;;;;5424703;26;20307;-85
2024/04/19 00:32:24;;;;;;;0.50;0.50;;;6.90;99.90;;;;;;5424274;26;20389;-85
2024/04/19 00:34:49;;;;;;;0.70;0.60;;;6.90;99.90;;;;;;5424935;26;20213;-85
2024/04/19 00:37:18;;;;;;;0.70;0.60;;;6.90;99.90;;;;;;5424521;26;20325;-86
2024/04/19 00:39:44;;;;;;;0.90;0.90;;;6.90;99.90;;;;;;5424954;26;20212;-85
2024/04/19 00:42:12;;;;;;;0.57;0.57;;;6.80;99.90;;;;;;5424880;26;20216;-85
2024/04/19 00:44:41;;;;;;;1.85;1.23;;;6.80;99.90;;;;;;5424064;26;20335;-86
2024/04/19 00:47:10;;;;;;;0.50;0.45;;;6.80;99.90;;;;;;5423591;26;20219;-84
2024/04/19 00:49:38;;;;;;;0.70;0.70;;;6.80;99.90;;;;;;5422111;26;20243;-84
2024/04/19 00:52:09;;;;;;;0.50;0.40;;;6.80;99.90;;;;;;5422680;26;20277;-83
2024/04/19 00:54:36;;;;;;;0.50;0.50;;;6.70;99.90;;;;;;5421516;26;20328;-84
2024/04/19 00:57:05;;;;;;;0.57;0.55;;;6.60;99.90;;;;;;5421351;26;20216;-83
2024/04/19 00:59:31;;;;;;;1.25;1.15;;;6.50;99.90;;;;;;5421017;26;20260;-83
2024/04/19 01:02:02;;;;;;;1.02;1.02;;;6.50;99.90;;;;;;5421337;26;20255;-83
2024/04/19 01:04:28;;;;;;;0.50;0.50;;;6.50;99.90;;;;;;5420292;26;20299;-82
2024/04/19 01:06:57;;;;;;;0.60;0.60;;;6.40;99.90;;;;;;5420363;26;20584;-82
2024/04/19 01:09:23;;;;;;;2.25;1.52;;;6.40;99.90;;;;;;5420905;26;20276;-82
2024/04/19 01:11:51;;;;;;;0.97;0.97;;;6.40;99.90;;;;;;5420426;26;20318;-82
2024/04/19 01:14:17;;;;;;;0.65;0.55;;;6.40;99.90;;;;;;5420338;26;20451;-84
2024/04/19 01:16:45;;;;;;;0.50;0.47;;;6.40;99.90;;;;;;5420605;26;20287;-83
2024/04/19 01:19:14;;;;;;;2.15;1.13;;;6.40;99.90;;;;;;5420213;26;20240;-83
2024/04/19 01:21:42;;;;;;;1.98;0.80;;;6.40;99.90;;;;;;5422153;26;20267;-83
2024/04/19 01:24:14;;;;;;;2.42;0.57;;;6.40;99.90;;;;;;5419908;26;20536;-84
2024/04/19 01:26:45;;;;;;;0.50;0.50;;;6.40;99.90;;;;;;5420525;26;20208;-83
2024/04/19 01:29:13;;;;;;;2.60;1.30;;;6.40;99.90;;;;;;5420896;26;20341;-84
2024/04/19 01:31:41;;;;;;;1.85;1.75;;;6.40;99.90;;;;;;5420385;26;20271;-83
2024/04/19 01:34:09;;;;;;;0.60;0.60;;;6.40;99.90;;;;;;5418885;26;20225;-83
2024/04/19 01:36:35;;;;;;;1.98;1.05;;;6.40;99.90;;;;;;5418971;26;20283;-84
2024/04/19 01:39:04;;;;;;;0.50;0.40;;;6.40;99.90;;;;;;5418681;26;20266;-83
2024/04/19 01:41:30;;;;;;;0.70;0.50;;;6.40;99.90;;;;;;5419155;26;20796;-83
2024/04/19 01:44:01;;;;;;;0.83;0.70;;;6.40;99.90;;;;;;5417171;26;20224;-83
2024/04/19 01:46:27;;;;;;;0.50;0.40;;;6.30;99.90;;;;;;5418664;26;20454;-84
2024/04/19 01:48:55;;;;;;;1.13;1.03;;;6.30;99.90;;;;;;5418711;26;20225;-83
2024/04/19 01:51:21;;;;;;;1.00;0.75;;;6.30;99.90;;;;;;5418516;26;20783;-82
2024/04/19 01:53:49;;;;;;;0.60;0.60;;;6.30;99.90;;;;;;5418013;26;20224;-82
2024/04/19 01:56:15;;;;;;;0.73;0.60;;;6.30;99.90;;;;;;5417891;26;21022;-83
2024/04/19 01:58:43;;;;;;;1.23;0.80;;;6.30;99.90;;;;;;5417636;26;20325;-82
2024/04/19 02:01:12;;;;;;;0.50;0.50;;;6.30;99.90;;;;;;5429644;26;20280;-83
2024/04/19 02:03:41;;;;;;;0.50;0.50;;;6.30;99.90;;;;;;5439994;26;20280;-83
2024/04/19 02:06:08;;;;;;;0.50;0.50;;;6.30;99.90;;;;;;5427819;26;20313;-84
2024/04/19 02:08:37;;;;;;;1.17;1.08;;;6.30;99.90;;;;;;5422915;26;20292;-84
2024/04/19 02:11:03;;;;;;;0.50;0.40;;;6.20;99.90;;;;;;5422378;26;20493;-84
2024/04/19 02:13:32;;;;;;;3.42;2.00;;;6.20;99.90;;;;;;5422030;26;20269;-84
2024/04/19 02:15:58;;;;;;;1.40;1.30;;;6.20;99.90;;;;;;5422250;26;20860;-84
2024/04/19 02:18:29;;;;;;;0.50;0.50;;;6.10;99.90;;;;;;5421603;26;20229;-85
2024/04/19 02:20:55;;;;;;;4.78;0.73;;;6.10;99.90;;;;;;5420891;26;20762;-83
2024/04/19 02:23:41;;;;;;;0.50;0.50;;;6.10;99.90;;;;;;5416421;26;20723;-82
2024/04/19 02:26:08;;;;;;;6.93;2.22;;;6.10;99.90;;;;;;5416454;26;20986;-83
2024/04/19 02:31:22;;;;;;;1.15;1.05;;;6.10;99.90;;;;;;5419045;26;20259;-82
2024/04/19 02:33:53;;;;;;;1.33;1.02;;;6.10;99.90;;;;;;5415797;26;20338;-82
2024/04/19 02:36:22;;;;;;;2.25;2.15;;;6.10;99.90;;;;;;5418687;26;20309;-83
2024/04/19 02:38:50;;;;;;;1.05;0.60;;;6.10;99.90;;;;;;5420055;26;20300;-83
2024/04/19 02:41:19;;;;;;;0.60;0.60;;;6.10;99.90;;;;;;5421067;26;20332;-83
2024/04/19 02:43:48;;;;;;;4.45;2.95;;;6.10;99.90;;;;;;5424265;26;20283;-83
2024/04/19 02:46:17;;;;;;;0.50;0.40;;;6.10;99.90;;;;;;5423790;26;20217;-83
2024/04/19 02:48:49;;;;;;;4.20;0.70;;;6.00;99.90;;;;;;5420514;26;20268;-83
2024/04/19 02:51:20;;;;;;;1.08;0.98;;;6.00;99.90;;;;;;5418275;26;20217;-83
2024/04/19 02:53:49;;;;;;;3.33;1.50;;;6.00;99.90;;;;;;5417445;26;20267;-82
2024/04/19 02:56:17;;;;;;;0.50;0.50;;;6.00;99.90;;;;;;5417854;26;20213;-81
2024/04/19 02:58:46;;;;;;;0.70;0.68;;;6.00;99.90;;;;;;5418831;26;20280;-82
2024/04/19 03:01:14;;;;;;;2.25;2.00;;;6.10;99.90;;;;;;5418303;26;20326;-82
2024/04/19 03:03:42;;;;;;;1.08;0.98;;;6.10;99.90;;;;;;5418151;26;20325;-82
2024/04/19 03:06:11;;;;;;;1.25;1.13;;;6.10;99.90;;;;;;5418348;26;20755;-84
2024/04/19 03:08:42;;;;;;;0.52;0.52;;;6.10;99.90;;;;;;5426185;26;20248;-85
2024/04/19 03:11:11;;;;;;;1.05;0.95;;;6.10;99.90;;;;;;5425981;26;20265;-85
2024/04/19 03:13:39;;;;;;;1.70;1.60;;;6.10;99.90;;;;;;5425911;26;20298;-85
2024/04/19 03:16:09;;;;;;;3.75;1.50;;;6.10;99.90;;;;;;5425641;26;20321;-85
2024/04/19 03:18:35;;;;;;;1.60;1.50;;;6.10;99.90;;;;;;5425288;26;20325;-85
2024/04/19 03:21:04;;;;;;;4.77;2.53;;;6.10;99.90;;;;;;5425325;26;20229;-84
2024/04/19 03:23:33;;;;;;;1.80;1.02;;;6.10;99.90;;;;;;5425544;26;20246;-84
2024/04/19 03:26:06;;;;;;;3.38;3.08;;;6.00;99.90;;;;;;5425357;26;20213;-85
2024/04/19 03:28:35;;;;;;;2.58;2.28;;;6.10;99.90;;;;;;5425113;26;20232;-84
2024/04/19 03:31:03;;;;;;;1.27;0.95;;;6.10;99.90;;;;;;5425283;26;20264;-85
2024/04/19 03:33:32;;;;;;;2.67;2.55;;;6.10;99.90;;;;;;5424335;26;20220;-85
2024/04/19 03:36:00;;;;;;;0.95;0.95;;;6.10;99.90;;;;;;5424523;26;20220;-85
2024/04/19 03:38:28;;;;;;;0.50;0.50;;;6.10;99.90;;;;;;5424980;26;20241;-85
2024/04/19 03:40:57;;;;;;;2.55;2.35;;;6.10;99.90;;;;;;5424128;26;20305;-85
2024/04/19 03:43:32;;;;;;;0.50;0.50;;;6.10;99.90;;;;;;5423915;26;20610;-84
2024/04/19 03:45:59;;;;;;;0.60;0.60;;;6.10;99.90;;;;;;5424205;26;20212;-85
2024/04/19 03:48:28;;;;;;;1.55;1.45;;;6.20;99.90;;;;;;5424147;26;20284;-85
2024/04/19 03:50:56;;;;;;;1.58;1.05;;;6.20;99.90;;;;;;5423825;26;20268;-85
2024/04/19 03:53:24;;;;;;;0.60;0.60;;;6.10;99.90;;;;;;5424390;26;20253;-85
2024/04/19 03:55:53;;;;;;;1.33;1.23;;;6.10;99.90;;;;;;5423406;26;20268;-85
2024/04/19 03:58:21;;;;;;;2.90;2.72;;;6.10;99.90;;;;;;5422461;26;20296;-84
2024/04/19 04:00:52;;;;;;;3.08;2.88;;;6.10;99.90;;;;;;5420954;26;20229;-83
2024/04/19 04:03:21;;;;;;;1.70;1.60;;;6.10;99.90;;;;;;5421026;26;20257;-83
2024/04/19 04:05:51;;;;;;;11.15;1.85;;;6.10;99.90;;;;;;5420712;26;20217;-83
2024/04/19 04:08:19;;;;;;;1.65;1.65;;;6.10;99.90;;;;;;5419579;26;20228;-81
2024/04/19 04:10:47;;;;;;;3.22;2.92;;;6.00;99.90;;;;;;5420322;26;20657;-83
2024/04/19 04:13:16;;;;;;;6.47;2.60;;;6.10;99.90;;;;;;5419432;26;20229;-83
2024/04/19 04:15:45;;;;;;;5.97;3.42;;;6.00;99.90;;;;;;5419478;26;20330;-84
2024/04/19 04:18:17;;;;;;;0.50;0.45;;;6.10;99.90;;;;;;5421811;26;20272;-83
2024/04/19 04:20:46;;;;;;;1.02;0.88;;;6.00;99.90;;;;;;5438651;26;20298;-83
2024/04/19 04:23:15;;;;;;;0.80;0.80;;;6.10;99.90;;;;;;5434675;26;20512;-84
2024/04/19 04:25:43;;;;;;;1.45;1.25;;;6.10;99.90;;;;;;5424227;26;20290;-86
2024/04/19 04:28:12;;;;;;;1.33;1.33;;;6.10;99.90;;;;;;5424542;26;20358;-85
2024/04/19 04:30:40;;;;;;;0.63;0.63;;;6.10;99.90;;;;;;5424321;26;20225;-86
2024/04/19 04:33:08;;;;;;;1.33;1.23;;;6.00;99.90;;;;;;5423165;26;20264;-85
2024/04/19 04:35:40;;;;;;;1.15;0.60;;;6.00;99.90;;;;;;5420692;26;20224;-84
2024/04/19 04:38:09;;;;;;;2.72;2.08;;;6.00;99.90;;;;;;5419088;26;20225;-82
2024/04/19 04:40:37;;;;;;;0.60;0.60;;;6.00;99.90;;;;;;5419576;26;20208;-85
2024/04/19 04:43:06;;;;;;;0.70;0.70;;;6.00;99.90;;;;;;5419478;26;20215;-83
2024/04/19 04:45:34;;;;;;;1.60;1.30;;;6.00;99.90;;;;;;5419339;26;20224;-83
2024/04/19 04:48:03;;;;;;;2.00;1.90;;;6.00;99.90;;;;;;5418475;26;20355;-83
2024/04/19 04:50:31;;;;;;;1.88;1.77;;;6.00;99.90;;;;;;5418316;26;20228;-83
2024/04/19 04:53:04;;;;;;;3.00;1.73;;;6.00;99.90;;;;;;5418440;26;20672;-83
2024/04/19 04:55:32;;;;;;;1.67;1.58;;;6.00;99.90;;;;;;5418395;26;20247;-83
2024/04/19 04:58:01;;;;;;;2.33;1.40;;;6.00;99.90;;;;;;5417792;26;20568;-83
2024/04/19 05:00:30;;;;;;;1.95;1.85;;;6.00;99.90;;;;;;5417480;26;20255;-84
2024/04/19 05:02:59;;;;;;;5.95;2.92;;;6.10;99.90;;;;;;5411967;26;20576;-83
2024/04/19 05:05:28;;;;;;;3.42;3.13;;;6.10;99.90;;;;;;5415910;26;20583;-84
2024/04/19 05:07:57;;;;;;;1.58;1.23;;;6.10;99.90;;;;;;5416224;26;20225;-84
2024/04/19 05:10:29;;;;;;;0.82;0.82;;;6.00;99.90;;;;;;5416587;26;20213;-84
2024/04/19 05:12:58;;;;;;;0.68;0.68;;;6.10;99.90;;;;;;5420293;26;20221;-85
2024/04/19 05:15:26;;;;;;;0.73;0.73;;;6.10;99.90;;;;;;5408747;26;20221;-85
2024/04/19 05:17:55;;;;;;;3.92;3.05;;;6.10;99.90;;;;;;5421300;26;20243;-84
2024/04/19 05:20:24;;;;;;;4.85;3.70;;;6.20;99.90;;;;;;5423531;26;20306;-85
2024/04/19 05:22:53;;;;;;;1.27;1.27;;;6.20;99.90;;;;;;5421594;26;20225;-85
2024/04/19 05:25:21;;;;;;;0.85;0.85;;;6.20;99.90;;;;;;5407772;26;20325;-85
2024/04/19 05:27:52;;;;;;;3.08;2.88;;;6.20;99.90;;;;;;5421380;26;20560;-86
2024/04/19 05:30:22;;;;;;;1.95;1.50;;;6.20;99.90;;;;;;5402897;26;20348;-86
2024/04/19 05:32:50;;;;;;;0.93;0.93;;;6.20;99.90;;;;;;5421327;26;20333;-84
2024/04/19 05:35:18;;;;;;;2.40;2.13;;;6.20;99.90;;;;;;5420334;26;20224;-87
2024/04/19 05:37:47;;;;;;;1.77;1.67;;;6.30;99.90;;;;;;5422897;26;20715;-86
2024/04/19 05:40:16;;;;;;;2.25;1.25;;;6.30;99.90;;;;;;5422122;26;20232;-84
2024/04/19 05:42:44;;;;;;;6.10;5.55;;;6.30;99.90;;;;;;5422056;26;20277;-85
2024/04/19 05:45:15;;;;;;;2.25;2.05;;;6.30;99.90;;;;;;5423443;26;20276;-84
2024/04/19 05:47:44;;;;;;;1.30;1.30;;;6.30;99.90;;;;;;5425738;26;20639;-86
2024/04/19 05:50:12;;;;;;;2.25;2.15;;;6.30;99.90;;;;;;5428690;26;20767;-84
2024/04/19 05:52:43;;;;;;;1.70;1.40;;;6.40;99.90;;;;;;5426164;26;20225;-84
2024/04/19 05:55:11;;;;;;;3.97;3.78;;;6.40;99.90;;;;;;5425878;26;20213;-86
2024/04/19 05:57:40;;;;;;;3.53;1.30;;;6.40;99.90;;;;;;5427686;26;20335;-84
2024/04/19 06:00:09;;;;;;;1.77;1.67;;;6.40;99.90;;;;;;5430161;26;20225;-85
2024/04/19 06:02:40;;;;;;;7.60;1.83;;;6.40;99.90;;;;;;5428430;26;20213;-85
2024/04/19 06:05:09;;;;;;;2.25;2.00;;;6.40;99.90;;;;;;5428577;26;20225;-85
2024/04/19 06:07:37;;;;;;;1.15;1.15;;;6.40;99.90;;;;;;5425420;26;20315;-86
2024/04/19 06:10:07;;;;;;;4.30;3.88;;;6.40;99.90;;;;;;5429590;26;20276;-83
2024/04/19 06:12:36;;;;;;;1.55;1.55;;;6.40;99.90;;;;;;5426172;26;20246;-86
2024/04/19 06:15:05;;;;;;;3.10;2.85;;;6.40;99.90;;;;;;5429286;26;20287;-84
2024/04/19 06:17:33;;;;;;;1.90;1.70;;;6.50;99.90;;;;;;5426820;26;20310;-86
2024/04/19 06:20:04;;;;;;;3.63;2.47;;;6.50;99.90;;;;;;5421513;26;20317;-85
2024/04/19 06:22:33;;;;;;;0.95;0.95;;;6.50;99.90;;;;;;5420945;26;20232;-85
2024/04/19 06:25:01;;;;;;;0.70;0.70;;;6.50;99.90;;;;;;5421262;26;20268;-86
2024/04/19 06:27:29;;;;;;;1.83;1.73;;;6.50;99.90;;;;;;5420918;26;20626;-86
2024/04/19 06:29:58;;;;;;;1.70;1.60;;;6.70;99.90;;;;;;5424944;26;20307;-85
2024/04/19 06:32:26;;;;;;;1.85;1.67;;;6.70;99.90;;;;;;5430594;26;20220;-84
2024/04/19 06:34:55;;;;;;;4.30;3.42;;;6.70;99.90;;;;;;5431400;26;20220;-83
2024/04/19 06:37:26;;;;;;;0.85;0.73;;;6.70;99.90;;;;;;5433335;26;20217;-84
2024/04/19 06:39:55;;;;;;;1.27;1.20;;;6.70;99.90;;;;;;5436244;26;20268;-83
2024/04/19 06:42:23;;;;;;;1.80;1.70;;;6.80;99.90;;;;;;5436963;26;20264;-86
2024/04/19 06:44:52;;;;;;;0.60;0.50;;;6.80;99.90;;;;;;5428611;26;20216;-86
2024/04/19 06:47:20;;;;;;;0.82;0.82;;;6.80;99.90;;;;;;5427442;26;20268;-87
2024/04/19 06:49:49;;;;;;;1.45;1.35;;;6.80;99.90;;;;;;5425020;26;20217;-85
2024/04/19 06:52:17;;;;;;;1.70;1.60;;;6.80;99.90;;;;;;5424743;26;20209;-86
2024/04/19 06:54:50;;;;;;;2.35;0.73;;;6.80;99.90;;;;;;5425611;26;20233;-86
2024/04/19 06:57:20;;;;;;;0.50;0.50;;;6.90;99.90;;;;;;5424939;26;20716;-86
2024/04/19 06:59:49;;;;;;;0.50;0.40;;;7.00;99.90;;;;;;5425425;26;20305;-85
2024/04/19 07:02:17;;;;;;;1.00;0.90;;;7.00;99.90;;;;;;5426649;26;20276;-85
2024/04/19 07:04:46;;;;;;;0.50;0.40;;;7.00;99.90;;;;;;5424889;26;20369;-86
2024/04/19 07:07:14;;;;;;;3.10;2.05;;;7.10;99.90;;;;;;5424702;26;20205;-85
2024/04/19 07:09:42;;;;;;;0.57;0.52;;;7.10;99.90;;;;;;5424576;26;20327;-85
2024/04/19 07:12:13;;;;;;;1.35;1.25;;;7.10;99.90;;;;;;5424997;26;20259;-83
2024/04/19 07:14:42;;;;;;;2.90;1.30;;;7.20;99.90;;;;;;5424034;26;20312;-83
2024/04/19 07:17:10;;;;;;;0.60;0.50;;;7.20;99.90;;;;;;5423516;26;20225;-84
2024/04/19 07:19:39;;;;;;;0.70;0.63;;;7.20;99.90;;;;;;5422938;26;20522;-82
2024/04/19 07:22:07;;;;;;;0.50;0.40;;;7.30;99.90;;;;;;5422604;26;20268;-85
2024/04/19 07:24:36;;;;;;;1.63;1.15;;;7.30;99.90;;;;;;5422586;26;20677;-87
2024/04/19 07:27:05;;;;;;;5.60;1.88;;;7.30;99.90;;;;;;5423512;26;20212;-83
2024/04/19 07:29:36;;;;;;;1.15;1.05;;;7.40;99.90;;;;;;5422593;26;20268;-83
2024/04/19 07:32:05;;;;;;;0.50;0.40;;;7.40;99.90;;;;;;5423886;26;20650;-83
2024/04/19 07:34:34;;;;;;;2.45;2.25;;;7.40;99.90;;;;;;5422422;26;20334;-84
2024/04/19 07:37:02;;;;;;;7.30;3.22;;;7.40;99.90;;;;;;5422212;26;20335;-85
2024/04/19 07:39:31;;;;;;;1.88;1.45;;;7.50;99.90;;;;;;5423397;26;20342;-85
2024/04/19 07:41:59;;;;;;;0.50;0.40;;;7.50;99.90;;;;;;5420462;26;20251;-87
2024/04/19 07:44:28;;;;;;;0.50;0.50;;;7.60;99.90;;;;;;5421276;26;20259;-86
2024/04/19 07:46:59;;;;;;;0.70;0.70;;;7.60;99.90;;;;;;5420688;26;20641;-87
2024/04/19 07:49:27;;;;;;;0.50;0.50;;;7.70;99.90;;;;;;5423135;26;20302;-88
2024/04/19 07:51:55;;;;;;;0.50;0.40;;;7.70;99.90;;;;;;5422443;26;20255;-86
2024/04/19 07:54:24;;;;;;;3.63;3.42;;;7.70;99.90;;;;;;5423328;26;20213;-84
2024/04/19 07:56:52;;;;;;;1.17;1.17;;;7.80;99.90;;;;;;5424514;26;20221;-83
2024/04/19 07:59:22;;;;;;;0.50;0.50;;;7.80;99.90;;;;;;5427600;26;20220;-84
2024/04/19 08:01:50;;;;;;;0.50;0.40;;;7.90;99.90;;;;;;5424723;26;20259;-84
2024/04/19 08:04:21;;;;;;;0.55;0.52;;;8.00;99.90;;;;;;5421194;26;20254;-83
2024/04/19 08:06:50;;;;;;;0.50;0.40;;;8.10;99.90;;;;;;5419887;26;20220;-85
2024/04/19 08:09:18;;;;;;;0.50;0.40;;;8.20;99.90;;;;;;5419402;26;20255;-86
2024/04/19 08:11:47;;;;;;;0.50;0.40;;;8.20;99.90;;;;;;5422729;26;20653;-85
2024/04/19 08:14:13;;;;;;;0.50;0.50;;;8.20;99.90;;;;;;5422882;26;20212;-85
2024/04/19 08:16:42;;;;;;;1.60;1.57;;;8.20;99.90;;;;;;5421807;26;20256;-86
2024/04/19 08:19:10;;;;;;;0.90;0.68;;;8.30;99.90;;;;;;5424588;26;20259;-85
2024/04/19 08:21:41;;;;;;;0.50;0.40;;;8.40;99.90;;;;;;5424825;26;20354;-85
2024/04/19 08:24:10;;;;;;;0.50;0.40;;;8.40;99.90;;;;;;5424259;26;20627;-85
2024/04/19 08:26:38;;;;;;;0.50;0.40;;;8.40;99.90;;;;;;5425155;26;20213;-85
2024/04/19 08:29:07;;;;;;;0.50;0.40;;;8.50;99.90;;;;;;5426048;26;20241;-86
2024/04/19 08:31:35;;;;;;;1.42;0.93;;;8.60;99.90;;;;;;5424484;26;20766;-88
2024/04/19 08:34:04;;;;;;;0.50;0.40;;;8.50;99.90;;;;;;5423896;26;20379;-87
2024/04/19 08:36:32;;;;;;;3.80;0.98;;;8.50;99.90;;;;;;5424277;26;20217;-88
2024/04/19 08:39:03;;;;;;;0.50;0.40;;;8.50;99.90;;;;;;5422035;26;20705;-87
2024/04/19 08:41:33;;;;;;;0.50;0.40;;;8.50;99.90;;;;;;5423049;26;20260;-85
2024/04/19 08:44:02;;;;;;;0.50;0.40;;;8.50;99.90;;;;;;5423239;26;20265;-83
2024/04/19 08:46:32;;;;;;;0.50;0.40;;;8.50;99.90;;;;;;5423875;26;20273;-86
2024/04/19 08:49:04;;;;;;;0.80;0.60;;;8.40;99.90;;;;;;5422915;26;20248;-87
2024/04/19 08:51:32;;;;;;;0.75;0.75;;;8.40;99.90;;;;;;5423599;26;20290;-86
2024/04/19 08:54:03;;;;;;;0.50;0.40;;;8.20;99.90;;;;;;5422988;26;20653;-86
2024/04/19 08:56:33;;;;;;;0.50;0.40;;;7.80;99.90;;;;;;5424174;26;20232;-86
2024/04/19 08:59:01;;;;;;;0.50;0.40;;;7.60;99.90;;;;;;5427878;26;20339;-84
2024/04/19 09:01:30;;;;;;;0.50;0.40;;;7.60;99.90;;;;;;5428524;26;20208;-87
2024/04/19 09:03:58;;;;;;;0.50;0.40;;;7.60;99.90;;;;;;5426181;26;20264;-86
2024/04/19 09:06:27;;;;;;;0.50;0.50;;;7.60;99.90;;;;;;5425482;26;20305;-86
2024/04/19 09:08:57;;;;;;;0.50;0.40;;;7.70;99.90;;;;;;5424905;26;20255;-86
2024/04/19 09:11:28;;;;;;;0.50;0.40;;;7.90;99.90;;;;;;5424798;26;20667;-86
2024/04/19 09:13:58;;;;;;;0.50;0.40;;;8.00;99.90;;;;;;5424226;26;20339;-87
2024/04/19 09:16:26;;;;;;;1.02;1.02;;;8.10;99.90;;;;;;5423511;26;20331;-84
2024/04/19 09:18:55;;;;;;;0.60;0.60;;;8.20;99.90;;;;;;5424199;26;20677;-84
2024/04/19 09:21:23;;;;;;;0.68;0.65;;;8.30;99.90;;;;;;5424155;26;20271;-86
2024/04/19 09:23:52;;;;;;;1.10;1.10;;;8.40;99.90;;;;;;5424177;26;20245;-85
2024/04/19 09:26:21;;;;;;;0.60;0.60;;;8.40;99.90;;;;;;5425148;26;20272;-85
2024/04/19 09:28:53;;;;;;;0.50;0.40;;;8.40;99.90;;;;;;5425507;26;20229;-87
2024/04/19 09:31:22;;;;;;;0.50;0.50;;;8.40;99.90;;;;;;5424603;26;20260;-86
2024/04/19 09:33:53;;;;;;;0.50;0.40;;;8.30;99.90;;;;;;5424963;26;20318;-86
2024/04/19 09:36:22;;;;;;;0.50;0.40;;;8.30;99.90;;;;;;5424098;26;20208;-87
2024/04/19 09:38:52;;;;;;;0.50;0.40;;;8.30;99.90;;;;;;5423445;26;20225;-87
2024/04/19 09:41:21;;;;;;;0.50;0.40;;;8.30;99.90;;;;;;5424196;26;20602;-88
2024/04/19 09:43:55;;;;;;;0.50;0.40;;;8.30;99.90;;;;;;5423452;26;20555;-86
2024/04/19 09:46:29;;;;;;;0.50;0.40;;;8.30;99.90;;;;;;5425538;26;20267;-87
2024/04/19 09:49:01;;;;;;;0.50;0.40;;;8.40;99.90;;;;;;5425659;26;20297;-87
2024/04/19 09:51:36;;;;;;;0.50;0.40;;;8.50;99.90;;;;;;5424578;26;20296;-86
2024/04/19 09:54:08;;;;;;;0.50;0.40;;;8.50;99.90;;;;;;5423566;26;20274;-85
2024/04/19 09:56:42;;;;;;;0.50;0.40;;;8.60;99.90;;;;;;5420801;26;20286;-83
2024/04/19 09:59:15;;;;;;;0.60;0.60;;;8.70;99.90;;;;;;5422450;26;20289;-85
2024/04/19 10:01:43;;;;;;;0.50;0.40;;;8.70;99.90;;;;;;5426121;26;20213;-87
2024/04/19 10:04:13;;;;;;;0.50;0.40;;;8.80;99.90;;;;;;5423068;26;20276;-86
2024/04/19 10:06:42;;;;;;;0.50;0.40;;;8.90;99.90;;;;;;5428990;26;20226;-87
2024/04/19 10:09:13;;;;;;;0.50;0.40;;;8.90;99.90;;;;;;5430422;26;20567;-87
2024/04/19 10:11:43;;;;;;;0.50;0.40;;;8.90;99.90;;;;;;5428468;26;20263;-88
2024/04/19 10:14:14;;;;;;;0.50;0.40;;;8.90;99.90;;;;;;5427434;26;20208;-88
2024/04/19 10:16:43;;;;;;;0.50;0.40;;;8.80;99.90;;;;;;5426086;26;20212;-89
2024/04/19 10:19:15;;;;;;;0.50;0.40;;;8.70;99.90;;;;;;5426693;26;20311;-88
2024/04/19 10:21:44;;;;;;;0.50;0.40;;;8.80;99.90;;;;;;5422943;26;20217;-89
2024/04/19 10:24:16;;;;;;;0.50;0.40;;;8.70;99.90;;;;;;5427126;26;20256;-89
2024/04/19 10:26:50;;;;;;;0.50;0.40;;;8.70;99.90;;;;;;5427699;26;20259;-88
2024/04/19 10:29:25;;;;;;;0.50;0.40;;;8.70;99.90;;;;;;5426229;26;20267;-87
2024/04/19 10:31:55;;;;;;;0.50;0.40;;;8.70;99.90;;;;;;5427759;26;20220;-87
2024/04/19 10:34:25;;;;;;;0.50;0.40;;;8.70;99.90;;;;;;5427175;26;20224;-87
2024/04/19 10:36:54;;;;;;;0.50;0.50;;;8.60;99.90;;;;;;5427664;26;20523;-88
2024/04/19 10:39:24;;;;;;;0.50;0.40;;;8.70;99.90;;;;;;5431025;26;20284;-88
2024/04/19 10:41:54;;;;;;;0.50;0.40;;;8.80;99.90;;;;;;5428496;26;20217;-88
2024/04/19 10:44:30;;;;;;;0.50;0.50;;;8.70;99.90;;;;;;5425971;26;20255;-87
2024/04/19 10:46:59;;;;;;;0.50;0.40;;;8.70;99.90;;;;;;5422101;26;20216;-87
2024/04/19 10:49:29;;;;;;;0.50;0.40;;;8.70;99.90;;;;;;5420855;26;20235;-88
2024/04/19 10:51:57;;;;;;;0.60;0.60;;;8.80;99.90;;;;;;5421352;26;20217;-88
2024/04/19 10:54:30;;;;;;;0.50;0.40;;;8.80;99.90;;;;;;5421559;26;20252;-88
2024/04/19 10:56:58;;;;;;;0.50;0.40;;;8.80;99.90;;;;;;5424177;26;20459;-83
2024/04/19 10:59:31;;;;;;;0.50;0.40;;;8.80;99.90;;;;;;5423578;26;20230;-85
2024/04/19 11:02:03;;;;;;;0.65;0.65;;;8.80;99.90;;;;;;5423321;26;20222;-85
2024/04/19 11:04:31;;;;;;;0.50;0.40;;;8.80;99.90;;;;;;5429027;26;20300;-87
2024/04/19 11:07:00;;;;;;;0.50;0.40;;;8.90;99.90;;;;;;5427287;26;20245;-84
2024/04/19 11:09:30;;;;;;;0.50;0.40;;;9.30;99.90;;;;;;5427744;26;20297;-87
2024/04/19 11:11:59;;;;;;;0.50;0.40;;;10.00;99.90;;;;;;5427215;26;20462;-88
2024/04/19 11:14:31;;;;;;;0.50;0.40;;;10.50;99.90;;;;;;5426612;26;20506;-87
2024/04/19 11:16:59;;;;;;;0.50;0.40;;;11.10;99.90;;;;;;5432563;26;20498;-87
2024/04/19 11:19:30;;;;;;;0.50;0.40;;;11.30;99.90;;;;;;5433292;26;20519;-88
2024/04/19 11:21:59;;;;;;;0.50;0.50;;;11.20;99.90;;;;;;5426928;26;20448;-88
2024/04/19 11:27:12;;;;;;;0.50;0.40;;;11.20;99.90;;;;;;5424925;26;20499;-87
2024/04/19 11:29:43;;;;;;;0.50;0.40;;;11.60;99.90;;;;;;5426094;26;20516;-87
2024/04/19 11:32:15;;;;;;;0.50;0.40;;;12.60;99.90;;;;;;5427079;26;20586;-87
2024/04/19 11:34:47;;;;;;;0.50;0.40;;;13.50;99.90;;;;;;5428808;26;20454;-87
2024/04/19 11:37:16;;;;;;;0.80;0.73;;;14.40;99.90;;;;;;5428001;26;20455;-87
2024/04/19 11:39:47;;;;;;;0.50;0.40;;;14.60;99.90;;;;;;5427805;26;20851;-88
2024/04/19 11:42:27;;;;;;;0.50;0.40;;;15.30;99.90;;;;;;5427849;26;20491;-87
2024/04/19 11:44:59;;;;;;;0.50;0.40;;;15.80;99.90;;;;;;5426772;26;20451;-87
2024/04/19 11:47:28;;;;;;;0.50;0.40;;;15.80;99.90;;;;;;5426446;26;20462;-87
2024/04/19 11:49:56;;;;;;;0.50;0.40;;;15.50;99.90;;;;;;5425925;26;20566;-88
2024/04/19 11:52:25;;;;;;;0.50;0.40;;;15.20;99.90;;;;;;5426450;26;20470;-86
2024/04/19 11:54:54;;;;;;;0.50;0.40;;;15.20;99.90;;;;;;5425030;26;20491;-85
2024/04/19 11:57:22;;;;;;;0.50;0.50;;;15.50;99.90;;;;;;5423775;26;20543;-86
2024/04/19 11:59:48;;;;;;;0.50;0.40;;;15.50;99.90;;;;;;5426150;26;20532;-86
2024/04/19 12:02:19;;;;;;;0.50;0.40;;;15.30;99.90;;;;;;5424795;26;20454;-87
2024/04/19 12:04:47;;;;;;;0.50;0.40;;;14.90;99.90;;;;;;5425798;26;20594;-87
2024/04/19 12:07:16;;;;;;;0.50;0.40;;;14.30;99.90;;;;;;5421975;26;20582;-86
2024/04/19 12:09:45;;;;;;;0.50;0.40;;;13.70;99.90;;;;;;5422689;26;20458;-85
2024/04/19 12:12:14;;;;;;;0.50;0.40;;;13.40;99.90;;;;;;5424031;26;20551;-87
2024/04/19 12:14:43;;;;;;;0.60;0.60;;;13.10;99.90;;;;;;5425656;26;21019;-85
2024/04/19 12:17:11;;;;;;;0.50;0.50;;;12.60;99.90;;;;;;5425902;26;20898;-86
2024/04/19 12:19:42;;;;;;;0.50;0.40;;;11.40;99.90;;;;;;5420980;26;20511;-87
2024/04/19 12:22:11;;;;;;;0.50;0.40;;;10.30;99.90;;;;;;5425313;26;20578;-85
2024/04/19 12:24:39;;;;;;;0.60;0.50;;;9.50;99.90;;;;;;5422645;26;20444;-84
2024/04/19 12:27:08;;;;;;;0.50;0.50;;;8.90;99.90;;;;;;5422308;26;20273;-86
2024/04/19 12:29:37;;;;;;;0.50;0.40;;;8.50;99.90;;;;;;5424091;26;20221;-87
2024/04/19 12:32:08;;;;;;;0.50;0.40;;;8.40;99.90;;;;;;5424513;26;20214;-86
2024/04/19 12:34:38;;;;;;;0.50;0.40;;;8.20;99.90;;;;;;5425320;26;20220;-85
2024/04/19 12:37:09;;;;;;;0.50;0.40;;;8.10;99.90;;;;;;5421086;26;20236;-86
2024/04/19 12:39:38;;;;;;;0.50;0.40;;;8.10;99.90;;;;;;5422499;26;20208;-85
2024/04/19 12:42:07;;;;;;;0.57;0.55;;;8.30;99.90;;;;;;5422079;26;20247;-85
2024/04/19 12:44:35;;;;;;;0.50;0.40;;;8.60;99.90;;;;;;5421983;26;20213;-84
2024/04/19 12:47:04;;;;;;;0.50;0.40;;;8.90;99.90;;;;;;5421200;26;20213;-84
2024/04/19 12:49:33;;;;;;;0.50;0.40;;;9.20;99.90;;;;;;5419651;26;20255;-84
2024/04/19 12:52:01;;;;;;;0.50;0.40;;;9.10;99.90;;;;;;5422041;26;20276;-85
2024/04/19 12:54:33;;;;;;;0.50;0.40;;;9.10;99.90;;;;;;5419360;26;20220;-85
2024/04/19 12:57:01;;;;;;;0.50;0.40;;;9.20;99.90;;;;;;5419133;26;20282;-85
2024/04/19 12:59:30;;;;;;;0.50;0.40;;;9.50;99.90;;;;;;5417712;26;20237;-84
2024/04/19 13:01:58;;;;;;;0.50;0.40;;;10.10;99.90;;;;;;5418386;26;20458;-84
2024/04/19 13:04:28;;;;;;;0.50;0.40;;;11.20;99.90;;;;;;5418752;26;20554;-84
2024/04/19 13:06:57;;;;;;;0.50;0.40;;;11.60;99.90;;;;;;5420292;26;20445;-84
2024/04/19 13:09:27;;;;;;;0.50;0.40;;;11.80;99.90;;;;;;5418884;26;20506;-84